Time;durP1;ratioP1;P1;durP2;ratioP2;P2;SDS_P1;SDS_P2;PMS_P1;PMS_P2;Temp;Humidity;BMP_temperature;BMP_pressure;BME280_temperature;BME280_humidity;BME280_pressure;Samples;Min_cycle;Max_cycle;Signal;HPM_P1;HPM_P2
2023/07/31 00:01:44;;;;;;;2.53;1.63;;;18.30;1.00;;;;;;5178331;23;20065;-70
2023/07/31 00:04:15;;;;;;;1.30;1.20;;;18.30;1.00;;;;;;5159379;28;20547;-70
2023/07/31 00:06:47;;;;;;;1.48;1.38;;;18.20;1.00;;;;;;5149062;28;20392;-69
2023/07/31 00:09:18;;;;;;;1.67;1.30;;;18.10;1.00;;;;;;5144203;28;20040;-70
2023/07/31 00:11:50;;;;;;;1.23;1.13;;;18.10;1.00;;;;;;5158485;28;20030;-70
2023/07/31 00:14:26;;;;;;;1.30;1.20;;;18.10;1.00;;;;;;5160942;28;20030;-70
2023/07/31 00:16:58;;;;;;;3.08;1.73;;;18.10;1.00;;;;;;5139451;28;20030;-70
2023/07/31 00:19:31;;;;;;;1.63;1.10;;;18.10;1.00;;;;;;5140690;28;20043;-70
2023/07/31 00:22:07;;;;;;;1.88;1.60;;;17.90;1.00;;;;;;5157388;28;20041;-72
2023/07/31 00:24:39;;;;;;;1.20;1.20;;;17.90;1.00;;;;;;5139763;28;20042;-70
2023/07/31 00:27:13;;;;;;;2.28;1.17;;;17.90;1.00;;;;;;5140312;28;20039;-70
2023/07/31 00:29:45;;;;;;;3.72;1.13;;;17.90;1.00;;;;;;5140660;28;20504;-71
2023/07/31 00:32:19;;;;;;;1.27;1.17;;;17.80;1.00;;;;;;5150243;28;20040;-70
2023/07/31 00:34:50;;;;;;;1.25;1.17;;;17.80;1.00;;;;;;5149328;28;20046;-70
2023/07/31 00:37:24;;;;;;;1.50;1.05;;;17.80;1.00;;;;;;5122063;28;20328;-71
2023/07/31 00:39:57;;;;;;;2.22;1.27;;;17.80;1.00;;;;;;5153868;28;20065;-70
2023/07/31 00:42:32;;;;;;;1.37;1.27;;;17.70;1.00;;;;;;5136698;28;20270;-70
2023/07/31 00:45:09;;;;;;;1.65;1.40;;;17.60;1.00;;;;;;5135201;28;20511;-70
2023/07/31 00:47:43;;;;;;;1.38;1.10;;;17.60;1.00;;;;;;5137931;28;20275;-72
2023/07/31 00:50:14;;;;;;;1.65;1.17;;;17.50;1.00;;;;;;5139702;28;20049;-70
2023/07/31 00:52:49;;;;;;;1.30;1.20;;;17.50;1.00;;;;;;5158283;28;20235;-69
2023/07/31 00:55:21;;;;;;;;;;;17.60;1.00;;;;;;5140233;28;20022;-70
2023/07/31 00:57:55;;;;;;;1.27;1.17;;;17.70;1.00;;;;;;5138053;28;19929;-70
2023/07/31 01:00:29;;;;;;;1.20;1.10;;;17.70;1.00;;;;;;5150752;28;20030;-70
2023/07/31 01:03:00;;;;;;;1.55;1.35;;;17.70;1.00;;;;;;5203895;23;20073;-61
2023/07/31 01:05:46;;;;;;;1.58;1.20;;;17.70;1.00;;;;;;5123591;28;20035;-65
2023/07/31 01:08:40;;;;;;;1.35;1.25;;;17.70;1.00;;;;;;5123326;28;20033;-64
2023/07/31 01:11:26;;;;;;;1.65;1.20;;;17.80;1.00;;;;;;5123411;28;20035;-62
2023/07/31 01:13:59;;;;;;;1.55;1.13;;;17.70;1.00;;;;;;5127146;28;20039;-67
2023/07/31 01:16:30;;;;;;;1.58;1.48;;;17.70;1.00;;;;;;5126145;28;20560;-62
2023/07/31 01:19:05;;;;;;;1.58;1.48;;;17.70;1.00;;;;;;5140056;28;20040;-65
2023/07/31 01:21:55;;;;;;;1.20;1.10;;;17.80;1.00;;;;;;5139576;28;20220;-63
2023/07/31 01:24:41;;;;;;;1.95;1.20;;;17.80;1.00;;;;;;5118367;28;20041;-65
2023/07/31 01:27:18;;;;;;;2.60;1.40;;;17.80;1.00;;;;;;5129521;28;20214;-65
2023/07/31 01:30:19;;;;;;;1.55;1.23;;;17.80;1.00;;;;;;5143013;28;20234;-64
2023/07/31 01:32:54;;;;;;;1.23;1.13;;;17.70;1.00;;;;;;5135995;28;20038;-65
2023/07/31 01:35:27;;;;;;;1.15;1.10;;;17.60;1.00;;;;;;5140183;28;20483;-66
2023/07/31 01:38:00;;;;;;;1.30;1.20;;;17.60;1.00;;;;;;5123472;28;20035;-64
2023/07/31 01:40:32;;;;;;;2.00;1.17;;;17.50;1.00;;;;;;5140084;28;20041;-65
2023/07/31 01:43:06;;;;;;;1.83;1.30;;;17.50;1.00;;;;;;5140319;28;20038;-65
2023/07/31 01:45:38;;;;;;;1.98;1.38;;;17.50;1.00;;;;;;5114180;28;20055;-67
2023/07/31 01:48:10;;;;;;;1.40;1.30;;;17.50;1.00;;;;;;5137090;28;20473;-64
2023/07/31 01:50:42;;;;;;;1.35;1.25;;;17.50;1.00;;;;;;5100687;28;20035;-67
2023/07/31 01:53:14;;;;;;;2.63;1.38;;;17.40;1.00;;;;;;5127759;28;20061;-63
2023/07/31 01:55:53;;;;;;;2.10;1.45;;;17.40;1.00;;;;;;5095836;28;20042;-65
2023/07/31 01:58:27;;;;;;;1.60;1.50;;;17.50;1.00;;;;;;5129293;28;20357;-63
2023/07/31 02:01:02;;;;;;;1.30;1.20;;;17.60;1.00;;;;;;5116983;28;20034;-63
2023/07/31 02:03:35;;;;;;;1.13;1.02;;;17.70;1.00;;;;;;5098901;28;20532;-65
2023/07/31 02:06:07;;;;;;;1.43;1.30;;;17.60;1.00;;;;;;5116593;29;20043;-63
2023/07/31 02:08:39;;;;;;;1.02;1.02;;;17.60;1.00;;;;;;5118768;29;20049;-65
2023/07/31 02:11:11;;;;;;;1.30;1.17;;;17.60;1.00;;;;;;5119529;29;20039;-62
2023/07/31 02:13:45;;;;;;;1.55;1.45;;;17.70;1.00;;;;;;5100896;29;20039;-65
2023/07/31 02:16:20;;;;;;;1.52;1.42;;;17.80;1.00;;;;;;5098454;29;20031;-66
2023/07/31 02:18:53;;;;;;;2.13;1.20;;;17.90;1.00;;;;;;5116719;29;20045;-65
2023/07/31 02:21:26;;;;;;;1.30;1.20;;;18.00;1.00;;;;;;5118060;28;20039;-65
2023/07/31 02:24:00;;;;;;;1.48;1.38;;;18.00;1.00;;;;;;5094100;29;20043;-61
2023/07/31 02:26:31;;;;;;;1.63;1.52;;;18.10;1.00;;;;;;5101805;29;20019;-64
2023/07/31 02:29:05;;;;;;;2.28;1.33;;;18.10;1.00;;;;;;5086900;29;20043;-64
2023/07/31 02:31:37;;;;;;;2.00;1.85;;;18.10;1.00;;;;;;5116848;28;20046;-65
2023/07/31 02:34:10;;;;;;;1.42;1.30;;;18.10;1.00;;;;;;5101788;29;20059;-64
2023/07/31 02:36:42;;;;;;;1.40;1.30;;;18.10;1.00;;;;;;5101299;29;20038;-65
2023/07/31 02:39:18;;;;;;;1.67;1.50;;;18.10;1.00;;;;;;5098458;29;20447;-62
2023/07/31 02:41:50;;;;;;;1.77;1.45;;;18.10;1.00;;;;;;5111465;28;20035;-63
2023/07/31 02:44:24;;;;;;;3.60;1.88;;;18.10;1.00;;;;;;5102693;28;20042;-64
2023/07/31 02:46:55;;;;;;;3.72;2.00;;;18.10;1.00;;;;;;5136178;28;20030;-63
2023/07/31 02:49:29;;;;;;;2.25;1.67;;;18.10;1.00;;;;;;5134755;28;20030;-64
2023/07/31 02:52:06;;;;;;;4.60;1.98;;;18.10;1.00;;;;;;5125155;28;20051;-63
2023/07/31 02:54:40;;;;;;;2.35;1.80;;;18.10;1.00;;;;;;5115324;28;20495;-66
2023/07/31 02:57:11;;;;;;;3.63;1.67;;;18.20;1.00;;;;;;5112890;28;20603;-61
2023/07/31 02:59:45;;;;;;;2.03;1.73;;;18.10;1.00;;;;;;5100840;29;20043;-66
2023/07/31 03:02:19;;;;;;;2.00;1.88;;;18.10;1.00;;;;;;5115546;28;20470;-65
2023/07/31 03:04:51;;;;;;;;;;;18.00;1.00;;;;;;5118451;28;20045;-62
2023/07/31 03:07:24;;;;;;;2.25;1.70;;;18.00;1.00;;;;;;5118774;29;20002;-66
2023/07/31 03:09:56;;;;;;;2.10;1.90;;;17.90;1.00;;;;;;5103653;28;20049;-65
2023/07/31 03:12:28;;;;;;;1.63;1.52;;;17.90;1.00;;;;;;5123795;28;20033;-65
2023/07/31 03:15:02;;;;;;;1.75;1.58;;;17.90;1.00;;;;;;5101067;28;20035;-64
2023/07/31 03:17:34;;;;;;;1.48;1.38;;;17.90;1.00;;;;;;5114139;29;20035;-65
2023/07/31 03:20:05;;;;;;;2.55;1.55;;;17.90;1.00;;;;;;5118389;29;20037;-63
2023/07/31 03:22:39;;;;;;;2.25;1.70;;;17.90;1.00;;;;;;5116792;29;20051;-63
2023/07/31 03:25:10;;;;;;;1.90;1.58;;;18.00;1.00;;;;;;5116823;28;20467;-66
2023/07/31 03:27:42;;;;;;;1.50;1.40;;;18.00;1.00;;;;;;5079636;29;20034;-66
2023/07/31 03:30:19;;;;;;;3.50;1.70;;;18.00;1.00;;;;;;5097938;29;20364;-67
2023/07/31 03:32:51;;;;;;;1.48;1.38;;;17.90;1.00;;;;;;5084302;29;20059;-63
2023/07/31 03:35:26;;;;;;;2.08;1.88;;;17.90;1.00;;;;;;5129372;28;20365;-65
2023/07/31 03:37:58;;;;;;;2.22;1.45;;;18.00;1.00;;;;;;5134839;28;20039;-68
2023/07/31 03:40:29;;;;;;;1.92;1.42;;;18.00;1.00;;;;;;5136088;28;20414;-66
2023/07/31 03:43:00;;;;;;;1.48;1.35;;;18.00;1.00;;;;;;5099709;29;20035;-65
2023/07/31 03:45:35;;;;;;;2.20;2.00;;;18.00;1.00;;;;;;5098163;29;20045;-64
2023/07/31 03:48:07;;;;;;;1.55;1.45;;;18.00;1.00;;;;;;5117341;29;20027;-64
2023/07/31 03:50:41;;;;;;;1.92;1.38;;;18.00;1.00;;;;;;5113180;29;20375;-65
2023/07/31 03:53:13;;;;;;;1.73;1.63;;;18.00;1.00;;;;;;5067698;29;20473;-65
2023/07/31 03:55:47;;;;;;;2.67;1.70;;;18.00;1.00;;;;;;5115392;29;20325;-67
2023/07/31 03:58:21;;;;;;;1.65;1.55;;;18.00;1.00;;;;;;5081702;29;20043;-66
2023/07/31 04:00:52;;;;;;;3.00;1.70;;;18.00;1.00;;;;;;5070424;28;20352;-62
2023/07/31 04:03:23;;;;;;;1.70;1.58;;;18.10;1.00;;;;;;5120949;28;20028;-68
2023/07/31 04:05:57;;;;;;;1.70;1.55;;;18.10;1.00;;;;;;5116264;29;20031;-67
2023/07/31 04:08:31;;;;;;;1.52;1.38;;;18.20;1.00;;;;;;5114683;29;20034;-67
2023/07/31 04:11:02;;;;;;;2.78;1.95;;;18.30;1.00;;;;;;5118085;29;20031;-62
2023/07/31 04:13:39;;;;;;;1.58;1.15;;;18.30;1.00;;;;;;5105347;29;20050;-67
2023/07/31 04:16:12;;;;;;;1.50;1.40;;;18.30;1.00;;;;;;5097862;29;20029;-63
2023/07/31 04:18:45;;;;;;;2.60;1.50;;;18.40;1.00;;;;;;5099824;29;20039;-65
2023/07/31 04:21:17;;;;;;;1.83;1.38;;;18.40;1.00;;;;;;5116477;29;20043;-67
2023/07/31 04:23:49;;;;;;;1.73;1.33;;;18.50;1.00;;;;;;5080996;29;20054;-64
2023/07/31 04:26:20;;;;;;;2.58;1.52;;;18.40;1.00;;;;;;5111853;29;20031;-64
2023/07/31 04:28:51;;;;;;;3.10;2.08;;;18.40;1.00;;;;;;5112271;28;20027;-67
2023/07/31 04:31:25;;;;;;;3.42;1.77;;;18.50;1.00;;;;;;5114010;29;20399;-63
2023/07/31 04:34:01;;;;;;;2.80;1.67;;;18.50;1.00;;;;;;5115929;28;20051;-61
2023/07/31 04:36:36;;;;;;;2.20;1.42;;;18.50;1.00;;;;;;5101393;28;20268;-65
2023/07/31 04:39:07;;;;;;;;;;;18.50;1.00;;;;;;5118800;28;20042;-62
2023/07/31 04:41:41;;;;;;;1.30;1.15;;;18.60;1.00;;;;;;5120173;28;20391;-64
2023/07/31 04:44:13;;;;;;;1.88;1.25;;;18.60;1.00;;;;;;5119798;29;20046;-62
2023/07/31 04:46:44;;;;;;;2.15;1.48;;;18.70;1.00;;;;;;5112374;28;20432;-64
2023/07/31 04:49:15;;;;;;;2.97;1.58;;;18.70;1.00;;;;;;5111761;29;20038;-65
2023/07/31 04:51:47;;;;;;;1.70;1.55;;;18.80;1.00;;;;;;5068600;29;20039;-67
2023/07/31 04:54:18;;;;;;;1.60;1.38;;;18.80;1.00;;;;;;5085191;29;20051;-66
2023/07/31 04:56:50;;;;;;;1.77;1.50;;;18.80;1.00;;;;;;5098097;29;20047;-65
2023/07/31 04:59:23;;;;;;;1.60;1.35;;;18.90;1.00;;;;;;5117327;29;20045;-62
2023/07/31 05:01:57;;;;;;;;;;;19.10;1.00;;;;;;5121440;28;20047;-63
2023/07/31 05:04:29;;;;;;;3.22;2.28;;;19.10;1.00;;;;;;5104029;29;20649;-64
2023/07/31 05:07:00;;;;;;;3.28;1.58;;;19.20;1.00;;;;;;5099941;28;20047;-64
2023/07/31 05:09:32;;;;;;;2.33;1.45;;;19.30;1.00;;;;;;5139063;28;20049;-66
2023/07/31 05:12:05;;;;;;;2.50;1.95;;;19.40;1.00;;;;;;5094025;29;20050;-65
2023/07/31 05:14:37;;;;;;;2.22;1.60;;;19.50;1.00;;;;;;5101540;29;20027;-65
2023/07/31 05:17:10;;;;;;;1.92;1.70;;;19.50;1.00;;;;;;5115277;29;20039;-65
2023/07/31 05:19:42;;;;;;;1.50;1.40;;;19.50;1.00;;;;;;5087468;29;20042;-65
2023/07/31 05:22:16;;;;;;;1.30;1.20;;;19.60;1.00;;;;;;5102749;28;20597;-64
2023/07/31 05:24:47;;;;;;;1.80;1.33;;;19.60;1.00;;;;;;5106537;29;20050;-64
2023/07/31 05:27:23;;;;;;;3.67;1.73;;;19.70;1.00;;;;;;5093292;28;20038;-62
2023/07/31 05:29:57;;;;;;;1.65;1.33;;;19.60;1.00;;;;;;5118954;29;20073;-65
2023/07/31 05:32:32;;;;;;;2.00;1.77;;;19.60;1.00;;;;;;5109518;28;20038;-64
2023/07/31 05:35:07;;;;;;;1.42;1.33;;;19.70;1.00;;;;;;5123985;28;20034;-64
2023/07/31 05:37:38;;;;;;;1.58;1.48;;;19.80;1.00;;;;;;5084095;28;20048;-64
2023/07/31 05:40:14;;;;;;;1.42;1.20;;;20.00;1.00;;;;;;5100771;29;20028;-65
2023/07/31 05:42:45;;;;;;;2.35;1.48;;;20.30;1.00;;;;;;5129687;28;20518;-65
2023/07/31 05:45:17;;;;;;;3.63;1.92;;;20.50;1.00;;;;;;5116630;29;20045;-64
2023/07/31 05:47:48;;;;;;;1.30;1.20;;;20.50;1.00;;;;;;5087173;29;20240;-64
2023/07/31 05:50:19;;;;;;;1.73;1.55;;;20.60;1.00;;;;;;5117919;28;20449;-61
2023/07/31 05:52:51;;;;;;;1.95;1.70;;;20.70;1.00;;;;;;5105938;28;20046;-66
2023/07/31 05:55:26;;;;;;;1.70;1.60;;;20.80;1.00;;;;;;5112533;29;20035;-67
2023/07/31 05:58:00;;;;;;;1.30;1.20;;;21.00;1.00;;;;;;5116729;28;20466;-64
2023/07/31 06:00:35;;;;;;;1.50;1.23;;;20.90;1.00;;;;;;5099051;29;20503;-66
2023/07/31 06:03:06;;;;;;;1.77;1.58;;;21.30;1.00;;;;;;5122853;28;20043;-66
2023/07/31 06:05:37;;;;;;;2.00;1.42;;;21.50;1.00;;;;;;5102495;29;20060;-64
2023/07/31 06:08:14;;;;;;;1.00;1.00;;;21.20;1.00;;;;;;5121785;28;20029;-67
2023/07/31 06:10:51;;;;;;;2.00;1.00;;;21.30;1.00;;;;;;5113434;29;20039;-63
2023/07/31 06:13:25;;;;;;;2.20;1.50;;;21.30;1.00;;;;;;5086269;29;20524;-64
2023/07/31 06:15:56;;;;;;;2.45;1.33;;;21.50;1.00;;;;;;5084264;29;20039;-63
2023/07/31 06:18:27;;;;;;;1.77;1.45;;;21.30;1.00;;;;;;5099940;29;20035;-66
2023/07/31 06:21:01;;;;;;;5.00;1.55;;;21.30;1.00;;;;;;5102120;29;20403;-62
2023/07/31 06:23:40;;;;;;;1.98;1.15;;;21.60;1.00;;;;;;5102567;29;20054;-64
2023/07/31 06:26:11;;;;;;;1.38;0.98;;;21.70;1.00;;;;;;5109446;28;20027;-66
2023/07/31 06:28:43;;;;;;;1.13;1.10;;;21.50;1.00;;;;;;5098069;28;20043;-67
2023/07/31 06:31:14;;;;;;;1.30;1.20;;;21.80;1.00;;;;;;5115126;28;20042;-66
2023/07/31 06:33:48;;;;;;;2.13;1.05;;;21.80;1.00;;;;;;5092278;29;20041;-62
2023/07/31 06:36:20;;;;;;;1.48;1.23;;;21.70;1.00;;;;;;5104729;29;20525;-65
2023/07/31 06:38:51;;;;;;;2.22;0.93;;;21.40;1.00;;;;;;5119446;28;20216;-67
2023/07/31 06:41:27;;;;;;;2.08;1.27;;;21.60;1.00;;;;;;5123753;28;20023;-67
2023/07/31 06:44:01;;;;;;;2.25;1.45;;;21.80;1.00;;;;;;5109786;28;20047;-67
2023/07/31 06:46:35;;;;;;;1.50;1.13;;;21.90;1.00;;;;;;5117455;28;20030;-65
2023/07/31 06:49:06;;;;;;;2.88;1.25;;;21.70;1.00;;;;;;5082901;29;20039;-65
2023/07/31 06:51:38;;;;;;;1.00;0.93;;;21.70;1.00;;;;;;5116641;28;20033;-64
2023/07/31 06:54:11;;;;;;;1.05;1.05;;;21.90;1.00;;;;;;5135762;28;20047;-65
2023/07/31 06:56:42;;;;;;;1.30;1.20;;;22.10;1.00;;;;;;5129144;28;20591;-63
2023/07/31 06:59:16;;;;;;;2.55;1.20;;;22.30;1.00;;;;;;5095358;29;20043;-65
2023/07/31 07:01:47;;;;;;;2.55;1.35;;;21.70;1.00;;;;;;5118389;28;20034;-68
2023/07/31 07:04:18;;;;;;;2.58;1.10;;;21.80;1.00;;;;;;5101638;28;20507;-66
2023/07/31 07:06:50;;;;;;;0.80;0.80;;;22.00;1.00;;;;;;5118083;29;20042;-67
2023/07/31 07:09:24;;;;;;;1.70;1.20;;;22.30;1.00;;;;;;5088901;29;20041;-65
2023/07/31 07:11:55;;;;;;;3.47;1.50;;;22.50;1.00;;;;;;5118426;28;20469;-64
2023/07/31 07:14:28;;;;;;;4.10;1.80;;;22.60;1.00;;;;;;5125734;28;20034;-66
2023/07/31 07:17:01;;;;;;;1.75;1.30;;;22.50;1.00;;;;;;5091178;29;20549;-63
2023/07/31 07:19:32;;;;;;;2.67;1.02;;;22.50;1.00;;;;;;5114530;29;20525;-69
2023/07/31 07:22:04;;;;;;;2.42;1.30;;;22.60;1.00;;;;;;5132255;28;20376;-66
2023/07/31 07:24:37;;;;;;;2.35;1.10;;;22.50;1.00;;;;;;5137006;28;20046;-68
2023/07/31 07:27:09;;;;;;;2.38;1.20;;;22.10;1.00;;;;;;5118039;28;20048;-64
2023/07/31 07:29:41;;;;;;;3.00;0.98;;;21.90;1.00;;;;;;5118899;28;20031;-66
2023/07/31 07:32:12;;;;;;;1.40;1.20;;;22.00;1.00;;;;;;5112161;28;20046;-67
2023/07/31 07:34:47;;;;;;;1.40;0.88;;;22.40;1.00;;;;;;5097811;29;20469;-67
2023/07/31 07:37:18;;;;;;;;;;;22.30;1.00;;;;;;5119652;29;20065;-66
2023/07/31 07:39:51;;;;;;;1.55;1.10;;;22.40;1.00;;;;;;5109207;28;20123;-66
2023/07/31 07:42:23;;;;;;;2.50;1.58;;;22.40;1.00;;;;;;5121913;28;20053;-63
2023/07/31 07:45:00;;;;;;;2.55;1.45;;;22.80;1.00;;;;;;5084428;28;20043;-66
2023/07/31 07:47:43;;;;;;;1.25;1.00;;;23.00;1.00;;;;;;5116474;28;20039;-67
2023/07/31 07:50:17;;;;;;;2.60;1.10;;;23.20;1.00;;;;;;5112775;29;20345;-62
2023/07/31 07:52:51;;;;;;;1.98;1.05;;;22.50;1.00;;;;;;5116662;28;20043;-65
2023/07/31 07:55:22;;;;;;;2.00;1.20;;;22.20;1.00;;;;;;5084393;29;20042;-62
2023/07/31 07:57:53;;;;;;;6.82;1.67;;;22.20;1.00;;;;;;5115755;28;20033;-62
2023/07/31 08:00:24;;;;;;;2.55;1.27;;;22.60;1.00;;;;;;5079070;29;20069;-64
2023/07/31 08:02:58;;;;;;;1.80;1.02;;;22.60;1.00;;;;;;5119118;28;20043;-63
2023/07/31 08:05:33;;;;;;;1.73;1.13;;;22.40;1.00;;;;;;5082813;29;20364;-63
2023/07/31 08:08:05;;;;;;;1.23;0.90;;;22.70;1.00;;;;;;5094389;28;20307;-65
2023/07/31 08:10:38;;;;;;;1.80;0.95;;;22.90;1.00;;;;;;5089548;29;20193;-66
2023/07/31 08:13:13;;;;;;;2.03;1.10;;;22.90;1.00;;;;;;5115169;28;20221;-63
2023/07/31 08:15:44;;;;;;;4.38;1.08;;;23.20;1.00;;;;;;5110937;29;20347;-63
2023/07/31 08:18:18;;;;;;;1.70;1.00;;;23.00;1.00;;;;;;5117211;29;20023;-66
2023/07/31 08:20:52;;;;;;;3.28;1.13;;;22.80;1.00;;;;;;5095415;28;20041;-65
2023/07/31 08:23:26;;;;;;;2.42;1.27;;;22.40;1.00;;;;;;5132327;28;20046;-65
2023/07/31 08:25:57;;;;;;;1.20;1.05;;;22.50;1.00;;;;;;5082703;29;20243;-66
2023/07/31 08:28:29;;;;;;;2.63;0.80;;;22.60;1.00;;;;;;5090623;29;20212;-63
2023/07/31 08:31:03;;;;;;;1.27;1.00;;;22.40;1.00;;;;;;5100804;28;20125;-65
2023/07/31 08:33:34;;;;;;;3.25;1.20;;;22.50;1.00;;;;;;5099615;28;20236;-64
2023/07/31 08:36:09;;;;;;;2.63;1.10;;;22.80;1.00;;;;;;5083954;29;20031;-66
2023/07/31 08:38:43;;;;;;;1.40;0.82;;;23.10;1.00;;;;;;5077813;29;20044;-62
2023/07/31 08:41:16;;;;;;;1.27;0.98;;;23.00;1.00;;;;;;5084127;29;20023;-66
2023/07/31 08:43:49;;;;;;;1.67;1.20;;;23.10;1.00;;;;;;5068297;29;20338;-67
2023/07/31 08:46:21;;;;;;;1.40;1.30;;;23.00;1.00;;;;;;5080529;28;20042;-66
2023/07/31 08:48:54;;;;;;;4.05;2.25;;;22.90;1.00;;;;;;5116726;28;20039;-66
2023/07/31 08:51:26;;;;;;;1.20;1.10;;;23.20;1.00;;;;;;5097696;28;20359;-65
2023/07/31 08:54:00;;;;;;;2.17;0.90;;;23.50;1.00;;;;;;5091819;29;20050;-63
2023/07/31 08:56:32;;;;;;;1.02;0.95;;;23.40;1.00;;;;;;5122006;28;20038;-67
2023/07/31 08:59:04;;;;;;;1.30;1.20;;;23.30;1.00;;;;;;5109021;28;20320;-65
2023/07/31 09:01:43;;;;;;;3.22;1.15;;;23.40;1.00;;;;;;5084110;28;20047;-63
2023/07/31 09:04:18;;;;;;;1.67;1.20;;;23.10;1.00;;;;;;5099171;29;20053;-65
2023/07/31 09:06:52;;;;;;;1.25;1.10;;;23.30;1.00;;;;;;5098322;29;20365;-66
2023/07/31 09:09:29;;;;;;;2.47;1.15;;;23.60;1.00;;;;;;5114826;29;20425;-68
2023/07/31 09:12:01;;;;;;;2.20;1.42;;;23.50;1.00;;;;;;5114900;29;20123;-66
2023/07/31 09:14:36;;;;;;;2.65;1.10;;;23.30;1.00;;;;;;5120132;28;20320;-65
2023/07/31 09:17:11;;;;;;;2.35;0.95;;;23.40;1.00;;;;;;5117229;28;20038;-69
2023/07/31 09:19:45;;;;;;;1.05;0.90;;;23.10;1.00;;;;;;5083568;29;20036;-66
2023/07/31 09:22:30;;;;;;;;;;;23.30;1.00;;;;;;5116214;28;20035;-70
2023/07/31 09:25:21;;;;;;;4.97;0.90;;;23.30;1.00;;;;;;5080959;29;19922;-64
2023/07/31 09:28:04;;;;;;;1.42;1.17;;;23.20;1.00;;;;;;5119780;28;20324;-66
2023/07/31 09:30:50;;;;;;;0.70;0.70;;;23.60;1.00;;;;;;5116480;29;20016;-66
2023/07/31 09:33:23;;;;;;;1.52;1.38;;;23.70;1.00;;;;;;5129220;28;20242;-67
2023/07/31 09:35:55;;;;;;;1.50;1.00;;;23.60;1.00;;;;;;5078654;29;20037;-67
2023/07/31 09:38:26;;;;;;;1.42;1.02;;;24.10;1.00;;;;;;5111259;28;20320;-62
2023/07/31 09:40:59;;;;;;;0.95;0.85;;;24.70;1.00;;;;;;5100948;29;20311;-66
2023/07/31 09:43:31;;;;;;;2.30;1.10;;;24.90;1.00;;;;;;5111095;28;20219;-64
2023/07/31 09:46:12;;;;;;;2.05;1.20;;;25.20;1.00;;;;;;5084013;29;20039;-66
2023/07/31 09:48:49;;;;;;;1.10;1.00;;;25.20;1.00;;;;;;5135806;28;20069;-68
2023/07/31 09:51:27;;;;;;;2.25;1.08;;;25.40;1.00;;;;;;5136488;28;20316;-67
2023/07/31 09:53:58;;;;;;;0.88;0.80;;;25.60;1.00;;;;;;5063899;29;20455;-68
2023/07/31 09:56:32;;;;;;;0.73;0.73;;;25.50;1.00;;;;;;5107796;28;20031;-67
2023/07/31 09:59:09;;;;;;;1.92;1.13;;;25.70;1.00;;;;;;5087857;28;20168;-67
2023/07/31 10:01:42;;;;;;;2.42;0.88;;;25.90;1.00;;;;;;5123047;28;20211;-63
2023/07/31 10:04:23;;;;;;;2.17;1.08;;;25.40;1.00;;;;;;5102308;28;20053;-66
2023/07/31 10:06:59;;;;;;;1.58;0.93;;;25.60;1.00;;;;;;5117774;29;20039;-64
2023/07/31 10:09:32;;;;;;;0.93;0.93;;;25.70;1.00;;;;;;5084334;29;20043;-67
2023/07/31 10:12:09;;;;;;;1.88;1.13;;;26.00;1.00;;;;;;5102643;28;20039;-62
2023/07/31 10:14:42;;;;;;;1.95;0.85;;;25.80;1.00;;;;;;5118845;28;20030;-66
2023/07/31 10:17:14;;;;;;;1.10;0.90;;;25.80;1.00;;;;;;5115115;28;20262;-65
2023/07/31 10:19:49;;;;;;;0.98;0.90;;;26.00;1.00;;;;;;5117985;29;20039;-66
2023/07/31 10:22:21;;;;;;;1.15;0.80;;;26.20;1.00;;;;;;5099528;29;20374;-64
2023/07/31 10:24:55;;;;;;;0.98;0.70;;;26.40;1.00;;;;;;5091982;29;20056;-67
2023/07/31 10:27:26;;;;;;;3.73;0.83;;;27.50;1.00;;;;;;5118539;28;20045;-64
2023/07/31 10:30:01;;;;;;;1.58;0.98;;;27.80;1.00;;;;;;5108958;28;20039;-65
2023/07/31 10:32:32;;;;;;;;;;;27.40;1.00;;;;;;5104018;28;20039;-64
2023/07/31 10:35:09;;;;;;;1.45;0.93;;;26.60;1.00;;;;;;5118464;29;19902;-64
2023/07/31 10:37:43;;;;;;;1.88;1.00;;;26.00;1.00;;;;;;5102098;29;20029;-62
2023/07/31 10:40:20;;;;;;;0.82;0.77;;;26.20;1.00;;;;;;5102501;28;20201;-65
2023/07/31 10:42:54;;;;;;;1.05;0.80;;;27.40;1.00;;;;;;5132692;28;20038;-66
2023/07/31 10:45:32;;;;;;;1.30;1.00;;;27.80;1.00;;;;;;5098404;28;20474;-66
2023/07/31 10:48:13;;;;;;;0.60;0.60;;;28.20;1.00;;;;;;5108459;29;20069;-64
2023/07/31 10:50:51;;;;;;;0.80;0.80;;;29.10;1.00;;;;;;5114782;28;20340;-67
2023/07/31 10:53:30;;;;;;;1.17;0.73;;;28.20;1.00;;;;;;5135956;28;20019;-65
2023/07/31 10:56:07;;;;;;;1.60;1.00;;;27.70;1.00;;;;;;5115938;29;20039;-66
2023/07/31 10:58:41;;;;;;;2.38;0.70;;;27.70;1.00;;;;;;5115344;28;20062;-62
2023/07/31 11:01:16;;;;;;;1.05;0.73;;;28.20;1.00;;;;;;5096344;28;20384;-64
2023/07/31 11:03:51;;;;;;;1.25;0.82;;;29.30;1.00;;;;;;5116620;28;20060;-66
2023/07/31 11:06:23;;;;;;;0.98;0.90;;;29.70;1.00;;;;;;5118824;29;20037;-63
2023/07/31 11:08:54;;;;;;;1.80;1.08;;;30.20;1.00;;;;;;5118836;29;20233;-65
2023/07/31 11:11:25;;;;;;;0.68;0.68;;;30.80;1.00;;;;;;5102300;28;20100;-65
2023/07/31 11:13:56;;;;;;;0.77;0.77;;;31.50;1.00;;;;;;5101851;29;20034;-65
2023/07/31 11:16:27;;;;;;;1.20;0.68;;;32.00;1.00;;;;;;5106826;28;20246;-66
2023/07/31 11:19:01;;;;;;;0.90;0.80;;;30.20;1.00;;;;;;5113955;29;20038;-66
2023/07/31 11:21:35;;;;;;;2.95;0.60;;;28.80;1.00;;;;;;5117270;29;20035;-63
2023/07/31 11:24:12;;;;;;;1.75;1.02;;;28.40;1.00;;;;;;5126073;28;20324;-64
2023/07/31 11:26:55;;;;;;;1.42;0.85;;;29.30;1.00;;;;;;5121210;28;20035;-67
2023/07/31 11:29:28;;;;;;;1.88;1.13;;;29.80;1.00;;;;;;5097158;28;20045;-68
2023/07/31 11:32:00;;;;;;;1.17;0.73;;;30.00;1.00;;;;;;5120271;28;20050;-67
2023/07/31 11:34:31;;;;;;;2.30;0.95;;;30.50;1.00;;;;;;5095166;29;20041;-65
2023/07/31 11:37:05;;;;;;;1.08;0.80;;;31.10;1.00;;;;;;5098911;28;20050;-65
2023/07/31 11:39:36;;;;;;;1.20;0.93;;;31.40;1.00;;;;;;5113241;28;20346;-65
2023/07/31 11:42:08;;;;;;;1.15;0.90;;;32.90;1.00;;;;;;5122998;28;20035;-65
2023/07/31 11:44:43;;;;;;;1.17;0.60;;;32.90;1.00;;;;;;5081610;29;20050;-66
2023/07/31 11:47:16;;;;;;;2.00;0.95;;;32.80;1.00;;;;;;5105951;28;20057;-65
2023/07/31 11:49:50;;;;;;;0.87;0.87;;;32.70;1.00;;;;;;5116741;28;20031;-63
2023/07/31 11:52:23;;;;;;;3.35;0.80;;;32.40;1.00;;;;;;5137373;28;20316;-64
2023/07/31 11:54:57;;;;;;;0.82;0.77;;;31.50;1.00;;;;;;5131356;28;20042;-65
2023/07/31 11:57:34;;;;;;;1.35;0.90;;;31.80;1.00;;;;;;5084436;29;20119;-65
2023/07/31 12:00:09;;;;;;;1.20;0.80;;;32.80;1.00;;;;;;5123900;28;20470;-66
2023/07/31 12:02:41;;;;;;;0.95;0.90;;;33.70;1.00;;;;;;5125010;28;20053;-65
2023/07/31 12:05:13;;;;;;;1.13;0.90;;;32.60;1.00;;;;;;5099202;29;20074;-64
2023/07/31 12:07:52;;;;;;;1.10;1.02;;;33.70;1.00;;;;;;5084942;29;20034;-64
2023/07/31 12:10:33;;;;;;;1.17;0.80;;;33.50;1.00;;;;;;5114495;28;20290;-65
2023/07/31 12:13:25;;;;;;;1.02;0.93;;;32.40;1.00;;;;;;5114625;28;20039;-64
2023/07/31 12:15:57;;;;;;;1.02;0.90;;;32.70;1.00;;;;;;5115223;29;20216;-64
2023/07/31 12:18:33;;;;;;;1.98;0.82;;;32.90;1.00;;;;;;5096971;29;20056;-65
2023/07/31 12:21:12;;;;;;;1.15;0.90;;;30.30;1.00;;;;;;5103216;28;20030;-62
2023/07/31 12:23:47;;;;;;;1.60;1.00;;;28.50;1.00;;;;;;5120728;28;20228;-67
2023/07/31 12:26:20;;;;;;;1.65;0.90;;;27.60;1.00;;;;;;5133729;28;20372;-65
2023/07/31 12:28:54;;;;;;;1.67;1.23;;;28.20;1.00;;;;;;5102083;28;20460;-66
2023/07/31 12:31:31;;;;;;;1.92;1.13;;;29.40;1.00;;;;;;5116320;28;20037;-66
2023/07/31 12:34:02;;;;;;;1.45;0.90;;;30.40;1.00;;;;;;5097530;29;20045;-66
2023/07/31 12:36:35;;;;;;;0.90;0.90;;;31.90;1.00;;;;;;5096606;29;20211;-64
2023/07/31 12:39:07;;;;;;;1.48;1.08;;;31.30;1.00;;;;;;5111392;29;20072;-61
2023/07/31 12:41:40;;;;;;;1.45;1.00;;;32.30;1.00;;;;;;5116936;29;20043;-66
2023/07/31 12:44:12;;;;;;;;;;;32.70;1.00;;;;;;5116462;29;20235;-64
2023/07/31 12:46:43;;;;;;;1.88;1.30;;;31.70;1.00;;;;;;5099670;29;19953;-63
2023/07/31 12:49:15;;;;;;;1.70;1.38;;;32.00;1.00;;;;;;5113791;28;20032;-67
2023/07/31 12:51:46;;;;;;;1.85;1.10;;;30.80;1.00;;;;;;5115770;28;20308;-65
2023/07/31 12:54:17;;;;;;;2.63;1.20;;;30.80;1.00;;;;;;5115160;28;20053;-65
2023/07/31 12:56:48;;;;;;;1.30;1.20;;;31.40;1.00;;;;;;5118011;29;20039;-67
2023/07/31 12:59:23;;;;;;;2.20;1.00;;;31.20;1.00;;;;;;5101076;29;20134;-65
2023/07/31 13:01:54;;;;;;;1.30;0.85;;;30.90;1.00;;;;;;5090822;28;20056;-67
2023/07/31 13:04:25;;;;;;;1.42;1.13;;;30.80;1.00;;;;;;5123434;28;20062;-66
2023/07/31 13:07:02;;;;;;;1.40;1.02;;;31.10;1.00;;;;;;5114633;28;20031;-62
2023/07/31 13:09:34;;;;;;;1.05;0.80;;;31.30;1.00;;;;;;5113699;28;20024;-67
2023/07/31 13:12:07;;;;;;;2.13;0.85;;;31.70;1.00;;;;;;5109750;29;20035;-62
2023/07/31 13:14:39;;;;;;;;;;;31.10;1.00;;;;;;5118795;28;20031;-66
2023/07/31 13:17:12;;;;;;;1.50;1.08;;;32.40;1.00;;;;;;5108012;29;20134;-66
2023/07/31 13:19:47;;;;;;;4.28;1.10;;;32.40;1.00;;;;;;5109854;29;20035;-65
2023/07/31 13:22:23;;;;;;;1.63;0.95;;;32.00;1.00;;;;;;5080323;29;20205;-65
2023/07/31 13:24:55;;;;;;;0.85;0.85;;;33.20;1.00;;;;;;5103062;29;20295;-64
2023/07/31 13:27:26;;;;;;;1.77;0.77;;;33.90;1.00;;;;;;5113083;28;20038;-69
2023/07/31 13:29:58;;;;;;;1.02;0.93;;;33.60;1.00;;;;;;5118100;29;20035;-67
2023/07/31 13:32:38;;;;;;;1.98;1.02;;;33.00;1.00;;;;;;5116573;28;20047;-67
2023/07/31 13:35:13;;;;;;;3.22;1.30;;;32.00;1.00;;;;;;5120154;28;20039;-66